Time;durP1;ratioP1;P1;durP2;ratioP2;P2;SDS_P1;SDS_P2;PMS_P1;PMS_P2;Temp;Humidity;BMP_temperature;BMP_pressure;BME280_temperature;BME280_humidity;BME280_pressure;Samples;Min_cycle;Max_cycle;Signal;HPM_P1;HPM_P2
2023/11/17 00:02:18;;;;;;;4.32;2.63;;;;;;;;;;6307304;22;20564;-88
2023/11/17 00:04:45;;;;;;;3.25;2.75;;;;;;;;;;6307036;22;20488;-87
2023/11/17 00:07:13;;;;;;;2.97;2.60;;;;;;;;;;6307753;22;20178;-88
2023/11/17 00:09:41;;;;;;;4.72;2.58;;;;;;;;;;6307033;22;20235;-87
2023/11/17 00:12:09;;;;;;;4.30;2.63;;;;;;;;;;6307890;22;20737;-87
2023/11/17 00:14:38;;;;;;;3.03;2.78;;;;;;;;;;6306420;22;20172;-88
2023/11/17 00:17:08;;;;;;;3.13;2.83;;;;;;;;;;6307601;22;20612;-88
2023/11/17 00:19:36;;;;;;;3.65;3.30;;;;;;;;;;6306905;22;20206;-87
2023/11/17 00:22:04;;;;;;;2.58;2.38;;;;;;;;;;6306946;22;20171;-86
2023/11/17 00:24:31;;;;;;;3.50;2.78;;;;;;;;;;6307551;22;20172;-87
2023/11/17 00:26:59;;;;;;;5.70;3.30;;;;;;;;;;6307513;22;20199;-89
2023/11/17 00:29:27;;;;;;;5.22;3.75;;;;;;;;;;6307190;22;20275;-88
2023/11/17 00:31:56;;;;;;;5.13;3.40;;;;;;;;;;6307059;22;20207;-87
2023/11/17 00:34:24;;;;;;;5.60;3.40;;;;;;;;;;6307109;22;20203;-88
2023/11/17 00:36:52;;;;;;;4.20;3.80;;;;;;;;;;6306722;22;20246;-88
2023/11/17 00:39:21;;;;;;;5.22;4.13;;;;;;;;;;6307205;22;20230;-87
2023/11/17 00:41:49;;;;;;;5.97;4.00;;;;;;;;;;6307120;22;20171;-87
2023/11/17 00:44:16;;;;;;;5.72;4.00;;;;;;;;;;6306635;22;20667;-88
2023/11/17 00:46:45;;;;;;;5.00;3.90;;;;;;;;;;6306975;22;20255;-87
2023/11/17 00:49:14;;;;;;;4.90;4.45;;;;;;;;;;6307482;22;20760;-87
2023/11/17 00:51:41;;;;;;;4.60;4.20;;;;;;;;;;6306840;22;20619;-89
2023/11/17 00:54:09;;;;;;;4.07;3.75;;;;;;;;;;6307250;22;20174;-89
2023/11/17 00:56:36;;;;;;;4.00;3.70;;;;;;;;;;6307261;22;20270;-89
2023/11/17 00:59:04;;;;;;;5.63;4.55;;;;;;;;;;6306361;22;20195;-88
2023/11/17 01:01:34;;;;;;;5.75;5.20;;;;;;;;;;6306572;22;20174;-87
2023/11/17 01:04:02;;;;;;;6.57;4.78;;;;;;;;;;6306479;22;20178;-88
2023/11/17 01:06:31;;;;;;;5.35;4.68;;;;;;;;;;6307211;22;20239;-88
2023/11/17 01:08:58;;;;;;;5.07;4.57;;;;;;;;;;6306645;22;20727;-87
2023/11/17 01:11:26;;;;;;;5.05;4.55;;;;;;;;;;6306113;22;20172;-88
2023/11/17 01:13:54;;;;;;;6.15;5.45;;;;;;;;;;6306605;22;20168;-88
2023/11/17 01:16:21;;;;;;;6.25;4.90;;;;;;;;;;6306626;22;20210;-88
2023/11/17 01:18:50;;;;;;;5.70;5.18;;;;;;;;;;6306368;22;20211;-88
2023/11/17 01:21:17;;;;;;;5.65;4.90;;;;;;;;;;6306515;22;20168;-88
2023/11/17 01:23:46;;;;;;;5.55;5.15;;;;;;;;;;6307341;22;20203;-88
2023/11/17 01:26:14;;;;;;;5.30;4.80;;;;;;;;;;6306260;22;20171;-87
2023/11/17 01:28:42;;;;;;;5.15;4.65;;;;;;;;;;6306737;22;20609;-87
2023/11/17 01:31:10;;;;;;;7.07;4.22;;;;;;;;;;6306623;22;20242;-87
2023/11/17 01:33:38;;;;;;;4.93;4.50;;;;;;;;;;6308221;22;20188;-87
2023/11/17 01:36:06;;;;;;;4.07;3.72;;;;;;;;;;6309691;22;20199;-89
2023/11/17 01:38:34;;;;;;;4.20;3.80;;;;;;;;;;6308977;22;20199;-89
2023/11/17 01:41:03;;;;;;;6.35;3.50;;;;;;;;;;6308324;22;20558;-88
2023/11/17 01:43:31;;;;;;;5.80;3.95;;;;;;;;;;6308968;22;20217;-88
2023/11/17 01:45:58;;;;;;;5.85;3.33;;;;;;;;;;6308669;22;20321;-88
2023/11/17 01:48:26;;;;;;;3.70;3.28;;;;;;;;;;6308447;22;20172;-87
2023/11/17 01:50:54;;;;;;;3.90;3.55;;;;;;;;;;6308348;22;20680;-88
2023/11/17 01:53:22;;;;;;;3.10;2.67;;;;;;;;;;6308254;22;20227;-87
2023/11/17 01:55:50;;;;;;;3.15;2.95;;;;;;;;;;6308506;22;20171;-87
2023/11/17 01:58:19;;;;;;;6.18;3.70;;;;;;;;;;6308062;22;20171;-88
2023/11/17 02:00:47;;;;;;;4.20;3.80;;;;;;;;;;6308658;22;20199;-88
2023/11/17 02:03:17;;;;;;;4.03;3.72;;;;;;;;;;6308153;22;20164;-88
2023/11/17 02:05:45;;;;;;;3.30;3.08;;;;;;;;;;6308790;22;20179;-87
2023/11/17 02:08:23;;;;;;;4.07;3.67;;;;;;;;;;6307899;22;20176;-88
2023/11/17 02:11:01;;;;;;;4.57;3.80;;;;;;;;;;6308723;22;20164;-86
2023/11/17 02:13:36;;;;;;;4.13;3.72;;;;;;;;;;6309155;22;20678;-88
2023/11/17 02:16:10;;;;;;;4.65;3.78;;;;;;;;;;6308769;22;20171;-87
2023/11/17 02:18:42;;;;;;;4.20;3.83;;;;;;;;;;6308461;22;20186;-88
2023/11/17 02:21:12;;;;;;;7.55;3.78;;;;;;;;;;6308476;22;20175;-87
2023/11/17 02:23:42;;;;;;;4.18;3.30;;;;;;;;;;6308403;22;20218;-88
2023/11/17 02:26:18;;;;;;;3.10;2.67;;;;;;;;;;6308648;22;20191;-88
2023/11/17 02:28:58;;;;;;;3.35;3.03;;;;;;;;;;6309253;22;20226;-88
2023/11/17 02:31:32;;;;;;;4.30;3.83;;;;;;;;;;6308328;22;20178;-88
2023/11/17 02:34:03;;;;;;;5.03;3.00;;;;;;;;;;6308041;22;20184;-87
2023/11/17 02:36:32;;;;;;;3.28;2.60;;;;;;;;;;6308628;22;20160;-89
2023/11/17 02:39:13;;;;;;;3.38;3.08;;;;;;;;;;6309054;22;20670;-87
2023/11/17 02:41:43;;;;;;;3.35;2.95;;;;;;;;;;6308959;22;20575;-89
2023/11/17 02:44:15;;;;;;;4.75;3.33;;;;;;;;;;6308509;22;20164;-88
2023/11/17 02:46:45;;;;;;;3.70;2.80;;;;;;;;;;6308758;22;20666;-87
2023/11/17 02:49:29;;;;;;;2.75;2.55;;;;;;;;;;6308912;22;20262;-88
2023/11/17 02:52:02;;;;;;;3.42;2.97;;;;;;;;;;6308917;22;20534;-89
2023/11/17 02:54:31;;;;;;;3.15;2.63;;;;;;;;;;6308246;22;20191;-87
2023/11/17 02:56:59;;;;;;;3.08;2.50;;;;;;;;;;6308796;22;20566;-87
2023/11/17 02:59:27;;;;;;;3.08;2.75;;;;;;;;;;6308478;22;20199;-88
2023/11/17 03:01:58;;;;;;;2.50;2.15;;;;;;;;;;6308944;22;20227;-88
2023/11/17 03:04:26;;;;;;;3.15;2.50;;;;;;;;;;6308208;22;20156;-88
2023/11/17 03:06:54;;;;;;;3.05;2.75;;;;;;;;;;6308239;22;20190;-87
2023/11/17 03:09:23;;;;;;;3.45;2.60;;;;;;;;;;6308787;22;20370;-87
2023/11/17 03:11:51;;;;;;;6.07;2.58;;;;;;;;;;6308750;22;20217;-87
2023/11/17 03:14:19;;;;;;;3.30;2.80;;;;;;;;;;6308051;22;20201;-88
2023/11/17 03:16:49;;;;;;;6.18;3.45;;;;;;;;;;6308480;22;20246;-88
2023/11/17 03:19:18;;;;;;;2.33;2.13;;;;;;;;;;6308851;22;20199;-88
2023/11/17 03:21:46;;;;;;;2.60;2.40;;;;;;;;;;6308432;22;20299;-88
2023/11/17 03:24:17;;;;;;;4.00;2.75;;;;;;;;;;6308870;22;20191;-87
2023/11/17 03:26:45;;;;;;;3.42;2.72;;;;;;;;;;6308736;22;20159;-88
2023/11/17 03:29:14;;;;;;;2.67;2.47;;;;;;;;;;6308732;22;20219;-87
2023/11/17 03:31:48;;;;;;;4.32;3.47;;;;;;;;;;6308769;22;20203;-88
2023/11/17 03:34:23;;;;;;;2.85;2.13;;;;;;;;;;6308829;22;20267;-88
2023/11/17 03:36:56;;;;;;;3.45;3.15;;;;;;;;;;6308292;22;20560;-87
2023/11/17 03:39:24;;;;;;;2.55;2.35;;;;;;;;;;6308121;22;20218;-88
2023/11/17 03:41:52;;;;;;;3.35;2.72;;;;;;;;;;6308848;22;20167;-88
2023/11/17 03:44:24;;;;;;;4.93;2.97;;;;;;;;;;6307844;22;20171;-88
2023/11/17 03:46:51;;;;;;;3.25;2.97;;;;;;;;;;6307936;22;20161;-87
2023/11/17 03:49:21;;;;;;;3.03;2.75;;;;;;;;;;6308603;22;20252;-88
2023/11/17 03:51:49;;;;;;;4.75;3.00;;;;;;;;;;6308488;22;20625;-89
2023/11/17 03:54:19;;;;;;;4.88;3.63;;;;;;;;;;6308508;22;20242;-88
2023/11/17 03:56:48;;;;;;;3.80;3.50;;;;;;;;;;6308272;22;20168;-88
2023/11/17 03:59:16;;;;;;;3.03;2.67;;;;;;;;;;6307652;22;20279;-88
2023/11/17 04:01:44;;;;;;;2.95;2.63;;;;;;;;;;6307705;22;20168;-88
2023/11/17 04:04:15;;;;;;;5.40;2.67;;;;;;;;;;6308384;22;20211;-88
2023/11/17 04:06:44;;;;;;;5.63;3.03;;;;;;;;;;6307833;22;20589;-88
2023/11/17 04:09:15;;;;;;;3.15;2.72;;;;;;;;;;6307691;22;20198;-88
2023/11/17 04:11:43;;;;;;;3.13;2.83;;;;;;;;;;6308010;22;20153;-87
2023/11/17 04:14:13;;;;;;;4.78;3.20;;;;;;;;;;6307824;22;20664;-87
2023/11/17 04:16:41;;;;;;;4.95;2.67;;;;;;;;;;6307713;22;20156;-88
2023/11/17 04:19:09;;;;;;;3.67;2.75;;;;;;;;;;6307814;22;20269;-87
2023/11/17 04:21:38;;;;;;;2.65;2.45;;;;;;;;;;6308242;22;20179;-87
2023/11/17 04:24:08;;;;;;;2.65;2.45;;;;;;;;;;6307308;22;20191;-87
2023/11/17 04:26:36;;;;;;;3.08;2.78;;;;;;;;;;6307612;22;20492;-88
2023/11/17 04:29:05;;;;;;;2.00;1.90;;;;;;;;;;6307660;22;20577;-88
2023/11/17 04:31:32;;;;;;;3.55;3.28;;;;;;;;;;6307633;22;20171;-88
2023/11/17 04:34:00;;;;;;;2.63;2.42;;;;;;;;;;6307332;22;20756;-88
2023/11/17 04:36:27;;;;;;;2.22;2.13;;;;;;;;;;6307186;22;20551;-89
2023/11/17 04:38:55;;;;;;;3.22;2.88;;;;;;;;;;6307115;22;20191;-87
2023/11/17 04:41:24;;;;;;;2.75;2.25;;;;;;;;;;6306817;22;20214;-87
2023/11/17 04:43:52;;;;;;;5.22;2.85;;;;;;;;;;6306909;22;20510;-89
2023/11/17 04:46:21;;;;;;;2.42;2.22;;;;;;;;;;6306889;22;20218;-88
2023/11/17 04:48:49;;;;;;;3.22;2.40;;;;;;;;;;6307029;22;20194;-89
2023/11/17 04:51:17;;;;;;;3.15;2.72;;;;;;;;;;6308007;22;20178;-88
2023/11/17 04:53:44;;;;;;;3.42;3.13;;;;;;;;;;6308273;22;20207;-89
2023/11/17 04:56:13;;;;;;;2.42;2.22;;;;;;;;;;6307967;22;20236;-87
2023/11/17 04:58:42;;;;;;;2.33;2.22;;;;;;;;;;6306863;22;20270;-88
2023/11/17 05:01:10;;;;;;;3.20;2.88;;;;;;;;;;6307632;22;20168;-88
2023/11/17 05:03:40;;;;;;;2.47;2.28;;;;;;;;;;6306756;22;20172;-88
2023/11/17 05:06:09;;;;;;;2.63;2.40;;;;;;;;;;6306418;22;20225;-89
2023/11/17 05:08:38;;;;;;;2.80;2.50;;;;;;;;;;6306805;22;20245;-88
2023/11/17 05:11:09;;;;;;;3.20;2.90;;;;;;;;;;6306565;22;20254;-88
2023/11/17 05:13:36;;;;;;;3.17;1.95;;;;;;;;;;6307372;22;20590;-88
2023/11/17 05:16:06;;;;;;;2.88;2.67;;;;;;;;;;6307148;22;20223;-88
2023/11/17 05:18:34;;;;;;;3.03;2.40;;;;;;;;;;6306562;22;20225;-88
2023/11/17 05:21:01;;;;;;;4.18;2.80;;;;;;;;;;6306436;22;20225;-89
2023/11/17 05:23:29;;;;;;;3.08;2.70;;;;;;;;;;6307111;22;20190;-89
2023/11/17 05:25:57;;;;;;;2.85;2.40;;;;;;;;;;6306658;22;20250;-87
2023/11/17 05:28:27;;;;;;;3.03;2.40;;;;;;;;;;6307062;22;20551;-88
2023/11/17 05:30:56;;;;;;;2.47;2.17;;;;;;;;;;6306742;22;20167;-89
2023/11/17 05:33:25;;;;;;;2.83;2.63;;;;;;;;;;6306594;22;20178;-89
2023/11/17 05:35:52;;;;;;;2.08;1.98;;;;;;;;;;6306674;22;20187;-88
2023/11/17 05:38:20;;;;;;;2.50;2.30;;;;;;;;;;6307511;22;20662;-88
2023/11/17 05:40:48;;;;;;;2.13;1.95;;;;;;;;;;6306919;22;20519;-88
2023/11/17 05:43:15;;;;;;;5.05;2.45;;;;;;;;;;6306472;22;20229;-89
2023/11/17 05:45:43;;;;;;;2.85;2.65;;;;;;;;;;6306845;22;20191;-88
2023/11/17 05:48:11;;;;;;;2.13;2.03;;;;;;;;;;6306706;22;20541;-89
2023/11/17 05:50:41;;;;;;;2.75;2.55;;;;;;;;;;6306582;22;20210;-89
2023/11/17 05:53:09;;;;;;;2.22;2.03;;;;;;;;;;6306906;22;20175;-88
2023/11/17 05:55:36;;;;;;;2.75;2.30;;;;;;;;;;6306644;22;20191;-88
2023/11/17 05:58:04;;;;;;;3.33;2.50;;;;;;;;;;6306565;22;20179;-88
2023/11/17 06:00:32;;;;;;;3.38;3.03;;;;;;;;;;6306343;22;20215;-89
2023/11/17 06:03:00;;;;;;;3.67;2.78;;;;;;;;;;6306607;22;20168;-87
2023/11/17 06:05:28;;;;;;;4.25;3.03;;;;;;;;;;6306390;22;20183;-89
2023/11/17 06:07:57;;;;;;;3.75;3.17;;;;;;;;;;6306458;22;20243;-88
2023/11/17 06:10:24;;;;;;;3.20;2.90;;;;;;;;;;6306384;22;20187;-89
2023/11/17 06:12:52;;;;;;;3.30;3.00;;;;;;;;;;6306375;22;20167;-89
2023/11/17 06:15:26;;;;;;;3.72;3.42;;;;;;;;;;6306524;22;20208;-89
2023/11/17 06:17:55;;;;;;;4.10;3.35;;;;;;;;;;6307061;22;20171;-89
2023/11/17 06:20:25;;;;;;;3.75;3.20;;;;;;;;;;6308389;22;20199;-88
2023/11/17 06:22:53;;;;;;;5.05;3.03;;;;;;;;;;6308569;22;20172;-88
2023/11/17 06:25:22;;;;;;;4.22;3.67;;;;;;;;;;6308146;22;20168;-87
2023/11/17 06:27:49;;;;;;;2.70;2.50;;;;;;;;;;6309083;22;20559;-88
2023/11/17 06:30:17;;;;;;;4.03;3.55;;;;;;;;;;6308192;22;20222;-88
2023/11/17 06:32:45;;;;;;;4.93;3.15;;;;;;;;;;6308088;22;20572;-88
2023/11/17 06:35:14;;;;;;;6.63;3.08;;;;;;;;;;6308085;22;20215;-88
2023/11/17 06:37:42;;;;;;;2.90;2.60;;;;;;;;;;6308292;22;20221;-88
2023/11/17 06:40:11;;;;;;;2.90;2.40;;;;;;;;;;6308104;22;20211;-88
2023/11/17 06:42:40;;;;;;;3.63;2.90;;;;;;;;;;6308142;22;20168;-88
2023/11/17 06:45:11;;;;;;;3.35;2.80;;;;;;;;;;6308301;22;20519;-89
2023/11/17 06:47:41;;;;;;;3.20;2.90;;;;;;;;;;6307946;22;20171;-88
2023/11/17 06:50:11;;;;;;;2.78;2.50;;;;;;;;;;6307892;22;20198;-88
2023/11/17 06:52:39;;;;;;;6.45;2.65;;;;;;;;;;6308424;22;20515;-88
2023/11/17 06:55:08;;;;;;;3.03;2.33;;;;;;;;;;6307826;22;20218;-89
2023/11/17 06:57:36;;;;;;;3.42;3.13;;;;;;;;;;6308050;22;20168;-88
2023/11/17 07:00:10;;;;;;;3.95;2.50;;;;;;;;;;6308798;22;20208;-88
2023/11/17 07:02:40;;;;;;;4.82;2.22;;;;;;;;;;6308293;22;20156;-89
2023/11/17 07:05:10;;;;;;;2.40;2.15;;;;;;;;;;6307630;22;20207;-88
2023/11/17 07:07:39;;;;;;;4.57;2.63;;;;;;;;;;6307802;22;20612;-88
2023/11/17 07:10:14;;;;;;;2.22;2.03;;;;;;;;;;6307933;22;20199;-89
2023/11/17 07:12:42;;;;;;;3.92;2.63;;;;;;;;;;6308345;22;20167;-88
2023/11/17 07:15:13;;;;;;;2.08;1.98;;;;;;;;;;6307873;22;20255;-88
2023/11/17 07:17:41;;;;;;;2.10;1.95;;;;;;;;;;6308603;22;20160;-88
2023/11/17 07:20:11;;;;;;;2.95;2.50;;;;;;;;;;6307475;22;20208;-89
2023/11/17 07:22:39;;;;;;;3.17;2.65;;;;;;;;;;6307800;22;20198;-88
2023/11/17 07:25:10;;;;;;;3.53;2.47;;;;;;;;;;6308088;22;20689;-89
2023/11/17 07:27:39;;;;;;;2.30;2.10;;;;;;;;;;6307916;22;20222;-88
2023/11/17 07:30:12;;;;;;;3.08;2.88;;;;;;;;;;6307561;22;20192;-88
2023/11/17 07:32:40;;;;;;;3.65;2.38;;;;;;;;;;6307627;22;20174;-88
2023/11/17 07:35:09;;;;;;;2.47;2.22;;;;;;;;;;6307721;22;20509;-88
2023/11/17 07:37:36;;;;;;;4.65;2.65;;;;;;;;;;6308151;22;20168;-89
2023/11/17 07:40:05;;;;;;;2.10;1.90;;;;;;;;;;6307806;22;20624;-88
2023/11/17 07:42:33;;;;;;;2.30;2.10;;;;;;;;;;6307818;22;20172;-89
2023/11/17 07:45:03;;;;;;;2.10;1.92;;;;;;;;;;6307493;22;20167;-88
2023/11/17 07:47:33;;;;;;;2.92;2.72;;;;;;;;;;6307434;22;20172;-88
2023/11/17 07:50:03;;;;;;;3.78;2.83;;;;;;;;;;6307745;22;20655;-89
2023/11/17 07:52:31;;;;;;;1.73;1.60;;;;;;;;;;6307196;22;20175;-89
2023/11/17 07:54:59;;;;;;;2.15;1.95;;;;;;;;;;6307943;22;20188;-88
2023/11/17 07:57:27;;;;;;;1.90;1.77;;;;;;;;;;6307659;22;20237;-90
2023/11/17 07:59:55;;;;;;;2.83;2.10;;;;;;;;;;6307840;22;20223;-89
2023/11/17 08:02:22;;;;;;;4.07;2.15;;;;;;;;;;6307829;22;20183;-89
2023/11/17 08:04:51;;;;;;;2.08;1.88;;;;;;;;;;6307767;22;20202;-88
2023/11/17 08:07:19;;;;;;;1.77;1.67;;;;;;;;;;6307405;22;20194;-89
2023/11/17 08:09:46;;;;;;;1.85;1.75;;;;;;;;;;6307297;22;20659;-89
2023/11/17 08:12:14;;;;;;;2.22;2.03;;;;;;;;;;6307104;22;20174;-88
2023/11/17 08:14:42;;;;;;;2.22;1.75;;;;;;;;;;6307772;22;20559;-90
2023/11/17 08:17:11;;;;;;;1.75;1.65;;;;;;;;;;6307598;22;20191;-90
2023/11/17 08:19:39;;;;;;;2.90;1.90;;;;;;;;;;6307524;22;20249;-88
2023/11/17 08:22:08;;;;;;;1.80;1.45;;;;;;;;;;6307443;22;20221;-89
2023/11/17 08:24:36;;;;;;;2.22;1.70;;;;;;;;;;6307406;22;20167;-89
2023/11/17 08:27:04;;;;;;;2.10;1.67;;;;;;;;;;6307589;22;20191;-88
2023/11/17 08:29:32;;;;;;;2.22;1.77;;;;;;;;;;6307256;22;20196;-89
2023/11/17 08:31:59;;;;;;;1.92;1.83;;;;;;;;;;6307768;22;20179;-88
2023/11/17 08:34:27;;;;;;;1.50;1.42;;;;;;;;;;6307513;22;20187;-87
2023/11/17 08:36:55;;;;;;;1.73;1.63;;;;;;;;;;6306785;22;20303;-87
2023/11/17 08:39:26;;;;;;;4.00;3.70;;;;;;;;;;6307281;22;20188;-89
2023/11/17 08:41:54;;;;;;;3.22;2.75;;;;;;;;;;6307028;22;20246;-89
2023/11/17 08:44:22;;;;;;;1.98;1.88;;;;;;;;;;6307239;22;20639;-89
2023/11/17 08:46:51;;;;;;;1.70;1.60;;;;;;;;;;6307279;22;20219;-89
2023/11/17 08:49:18;;;;;;;2.13;1.85;;;;;;;;;;6307931;22;20274;-89
2023/11/17 08:51:46;;;;;;;1.30;1.20;;;;;;;;;;6307992;22;20168;-89
2023/11/17 08:54:14;;;;;;;1.58;1.48;;;;;;;;;;6307805;22;20868;-88
2023/11/17 08:56:47;;;;;;;0.93;0.90;;;;;;;;;;6307759;22;20530;-89
2023/11/17 08:59:14;;;;;;;1.25;0.90;;;;;;;;;;6306836;22;20266;-89
2023/11/17 09:01:42;;;;;;;1.35;1.25;;;;;;;;;;6307061;22;20204;-89
2023/11/17 09:04:10;;;;;;;1.52;1.25;;;;;;;;;;6306942;22;20170;-89
2023/11/17 09:06:39;;;;;;;1.10;1.10;;;;;;;;;;6306699;22;20168;-89
2023/11/17 09:09:10;;;;;;;1.88;1.65;;;;;;;;;;6306779;22;20261;-88
2023/11/17 09:11:38;;;;;;;1.38;1.27;;;;;;;;;;6306776;22;20167;-89
2023/11/17 09:14:07;;;;;;;1.33;1.23;;;;;;;;;;6307488;22;20164;-90
2023/11/17 09:16:35;;;;;;;2.22;1.77;;;;;;;;;;6307162;22;20187;-88
2023/11/17 09:19:03;;;;;;;1.30;1.20;;;;;;;;;;6307295;22;20207;-88
2023/11/17 09:21:31;;;;;;;1.58;1.48;;;;;;;;;;6306559;22;20264;-85
2023/11/17 09:23:59;;;;;;;1.67;1.55;;;;;;;;;;6305845;22;20164;-85
2023/11/17 09:26:26;;;;;;;0.98;0.98;;;;;;;;;;6305102;22;20250;-85
2023/11/17 09:28:55;;;;;;;1.00;1.00;;;;;;;;;;6306205;22;20699;-85
2023/11/17 09:31:24;;;;;;;2.00;1.38;;;;;;;;;;6305899;22;20505;-85
2023/11/17 09:33:52;;;;;;;1.40;1.30;;;;;;;;;;6306149;22;20247;-84
2023/11/17 09:36:20;;;;;;;1.08;1.08;;;;;;;;;;6305657;22;20171;-85
2023/11/17 09:38:48;;;;;;;0.70;0.70;;;;;;;;;;6306110;22;20275;-85
2023/11/17 09:41:15;;;;;;;1.13;1.02;;;;;;;;;;6305881;22;20190;-84
2023/11/17 09:43:47;;;;;;;1.88;1.15;;;;;;;;;;6305872;22;20171;-85
2023/11/17 09:46:16;;;;;;;1.23;1.15;;;;;;;;;;6305711;22;20604;-85
2023/11/17 09:48:46;;;;;;;1.17;1.10;;;;;;;;;;6306019;22;20223;-85
2023/11/17 09:51:14;;;;;;;1.48;1.20;;;;;;;;;;6305749;22;20186;-85
2023/11/17 09:53:43;;;;;;;1.23;1.13;;;;;;;;;;6306673;22;20183;-85
2023/11/17 09:56:11;;;;;;;1.10;1.00;;;;;;;;;;6307801;22;20164;-85
2023/11/17 09:58:39;;;;;;;1.55;1.15;;;;;;;;;;6307491;22;20278;-84
2023/11/17 10:01:10;;;;;;;0.90;0.90;;;;;;;;;;6308396;22;20176;-85
2023/11/17 10:03:38;;;;;;;1.15;0.90;;;;;;;;;;6308314;22;20167;-84
2023/11/17 10:06:08;;;;;;;0.80;0.80;;;;;;;;;;6307926;22;20176;-85
2023/11/17 10:08:39;;;;;;;1.08;1.00;;;;;;;;;;6308054;22;20250;-85
2023/11/17 10:11:07;;;;;;;7.65;3.03;;;;;;;;;;6308098;22;20192;-85
2023/11/17 10:13:35;;;;;;;2.20;1.80;;;;;;;;;;6307930;22;20615;-85
2023/11/17 10:16:03;;;;;;;2.17;1.50;;;;;;;;;;6307997;22;20199;-85
2023/11/17 10:18:33;;;;;;;1.50;1.00;;;;;;;;;;6308042;22;20227;-85
2023/11/17 10:21:01;;;;;;;1.83;1.23;;;;;;;;;;6307731;22;20175;-84
2023/11/17 10:23:31;;;;;;;1.10;1.10;;;;;;;;;;6307891;22;20172;-85
2023/11/17 10:26:00;;;;;;;1.42;1.33;;;;;;;;;;6307798;22;20167;-85
2023/11/17 10:28:28;;;;;;;1.20;1.10;;;;;;;;;;6308033;22;20174;-85
2023/11/17 10:31:00;;;;;;;0.82;0.82;;;;;;;;;;6307732;22;20192;-85
2023/11/17 10:33:30;;;;;;;1.48;1.35;;;;;;;;;;6307797;22;20152;-85
2023/11/17 10:36:02;;;;;;;1.98;0.93;;;;;;;;;;6307665;22;20696;-85
2023/11/17 10:38:34;;;;;;;1.60;1.30;;;;;;;;;;6307644;22;20271;-85
2023/11/17 10:41:16;;;;;;;1.10;1.10;;;;;;;;;;6307229;22;20416;-85
2023/11/17 10:43:53;;;;;;;1.60;1.10;;;;;;;;;;6307968;22;20160;-86
2023/11/17 10:46:28;;;;;;;3.00;1.00;;;;;;;;;;6307320;22;20171;-85
2023/11/17 10:48:58;;;;;;;1.20;1.10;;;;;;;;;;6306984;22;20710;-85
2023/11/17 10:51:27;;;;;;;1.15;1.05;;;;;;;;;;6307178;22;20160;-85
2023/11/17 10:54:06;;;;;;;1.40;1.30;;;;;;;;;;6308060;22;20193;-86
2023/11/17 10:56:35;;;;;;;1.25;1.15;;;;;;;;;;6307067;22;20164;-86
2023/11/17 10:59:03;;;;;;;1.20;1.10;;;;;;;;;;6306798;22;20242;-85
2023/11/17 11:01:32;;;;;;;1.27;1.20;;;;;;;;;;6307234;22;20246;-86
2023/11/17 11:03:59;;;;;;;3.33;1.20;;;;;;;;;;6307014;22;20221;-85
2023/11/17 11:06:28;;;;;;;1.30;1.00;;;;;;;;;;6306436;22;20254;-85
2023/11/17 11:09:00;;;;;;;2.10;1.58;;;;;;;;;;6306852;22;20192;-85
2023/11/17 11:11:29;;;;;;;1.30;1.20;;;;;;;;;;6307999;22;20493;-88
2023/11/17 11:13:58;;;;;;;1.40;1.30;;;;;;;;;;6308605;22;20243;-88
2023/11/17 11:16:30;;;;;;;0.85;0.85;;;;;;;;;;6308945;22;20258;-89
2023/11/17 11:18:59;;;;;;;1.90;1.08;;;;;;;;;;6308988;22;20533;-89
2023/11/17 11:21:29;;;;;;;0.70;0.70;;;;;;;;;;6308269;22;20205;-89
2023/11/17 11:23:59;;;;;;;1.30;1.20;;;;;;;;;;6308386;22;20172;-88
2023/11/17 11:26:29;;;;;;;1.08;1.00;;;;;;;;;;6309008;22;20254;-89
2023/11/17 11:28:58;;;;;;;1.20;1.10;;;;;;;;;;6308766;22;20191;-89
2023/11/17 11:31:26;;;;;;;1.48;1.10;;;;;;;;;;6309041;22;20199;-89
2023/11/17 11:33:54;;;;;;;1.45;1.30;;;;;;;;;;6308027;22;20216;-89
2023/11/17 11:36:23;;;;;;;1.35;1.25;;;;;;;;;;6308337;22;20180;-88
2023/11/17 11:38:51;;;;;;;0.90;0.90;;;;;;;;;;6307938;22;20279;-89
2023/11/17 11:41:22;;;;;;;0.90;0.90;;;;;;;;;;6308483;22;20203;-89
2023/11/17 11:44:03;;;;;;;2.40;1.20;;;;;;;;;;6312001;22;20214;-89
2023/11/17 11:46:53;;;;;;;1.40;1.30;;;;;;;;;;6308540;22;20182;-89
2023/11/17 11:49:20;;;;;;;1.48;1.23;;;;;;;;;;6308324;22;20701;-89
2023/11/17 11:51:52;;;;;;;1.42;1.33;;;;;;;;;;6307883;22;20258;-87
2023/11/17 11:54:22;;;;;;;1.60;1.50;;;;;;;;;;6307585;22;20164;-87
2023/11/17 11:56:50;;;;;;;1.58;1.48;;;;;;;;;;6307929;22;20194;-88
2023/11/17 11:59:20;;;;;;;1.33;1.23;;;;;;;;;;6308062;22;20199;-88
2023/11/17 12:01:49;;;;;;;1.55;1.20;;;;;;;;;;6307969;22;20168;-88
2023/11/17 12:04:20;;;;;;;1.08;1.08;;;;;;;;;;6307729;22;20203;-88
2023/11/17 12:06:47;;;;;;;0.90;0.90;;;;;;;;;;6308016;22;20157;-89
2023/11/17 12:09:19;;;;;;;1.40;1.30;;;;;;;;;;6306421;22;20188;-89
2023/11/17 12:11:49;;;;;;;1.38;1.27;;;;;;;;;;6307841;22;20170;-88
2023/11/17 12:14:26;;;;;;;1.88;1.63;;;;;;;;;;6307369;22;20176;-88
2023/11/17 12:16:57;;;;;;;1.05;1.02;;;;;;;;;;6307706;22;20159;-89
2023/11/17 12:19:30;;;;;;;1.30;1.20;;;;;;;;;;6307614;22;20253;-88
2023/11/17 12:22:01;;;;;;;2.75;1.30;;;;;;;;;;6308181;22;20616;-87
2023/11/17 12:24:32;;;;;;;2.50;1.70;;;;;;;;;;6307640;22;20160;-89
2023/11/17 12:26:59;;;;;;;3.40;2.20;;;;;;;;;;6307500;22;20174;-88
2023/11/17 12:29:31;;;;;;;3.72;2.35;;;;;;;;;;6308321;22;20275;-88
2023/11/17 12:32:03;;;;;;;4.60;2.05;;;;;;;;;;6307772;22;20585;-88
2023/11/17 12:34:31;;;;;;;2.22;1.73;;;;;;;;;;6307173;22;20160;-88
2023/11/17 12:37:01;;;;;;;1.50;1.20;;;;;;;;;;6307469;22;20211;-88
2023/11/17 12:39:36;;;;;;;1.90;1.55;;;;;;;;;;6307354;22;20230;-88
2023/11/17 12:42:05;;;;;;;3.03;1.83;;;;;;;;;;6307389;22;20183;-88
2023/11/17 12:44:35;;;;;;;1.40;1.30;;;;;;;;;;6307273;22;20168;-88
2023/11/17 12:47:03;;;;;;;1.42;1.33;;;;;;;;;;6312172;22;20164;-89
2023/11/17 12:49:30;;;;;;;1.65;1.55;;;;;;;;;;6307447;22;20270;-88
2023/11/17 12:52:06;;;;;;;6.72;3.40;;;;;;;;;;6307625;22;20186;-89
2023/11/17 12:54:34;;;;;;;9.98;4.07;;;;;;;;;;6307313;22;20596;-88
2023/11/17 12:57:02;;;;;;;4.72;2.50;;;;;;;;;;6307578;22;20514;-89
2023/11/17 12:59:30;;;;;;;3.33;2.42;;;;;;;;;;6308030;22;20207;-88
2023/11/17 13:01:59;;;;;;;2.03;1.30;;;;;;;;;;6307269;22;20168;-88
2023/11/17 13:04:27;;;;;;;1.00;1.00;;;;;;;;;;6307834;22;20642;-88
2023/11/17 13:06:54;;;;;;;0.85;0.85;;;;;;;;;;6307061;22;20250;-87
2023/11/17 13:09:22;;;;;;;1.17;1.00;;;;;;;;;;6306955;22;20527;-88
2023/11/17 13:11:50;;;;;;;3.50;1.90;;;;;;;;;;6306960;22;20171;-88
2023/11/17 13:14:25;;;;;;;2.22;1.50;;;;;;;;;;6306965;22;20168;-88
2023/11/17 13:16:52;;;;;;;4.10;2.28;;;;;;;;;;6308164;22;20168;-88
2023/11/17 13:19:21;;;;;;;3.42;1.90;;;;;;;;;;6307155;22;20227;-88
2023/11/17 13:21:49;;;;;;;3.95;2.10;;;;;;;;;;6306797;22;20222;-88
2023/11/17 13:24:17;;;;;;;3.05;1.80;;;;;;;;;;6306809;22;20270;-88
2023/11/17 13:26:47;;;;;;;2.75;1.85;;;;;;;;;;6307372;22;20172;-87
2023/11/17 13:29:19;;;;;;;2.65;2.00;;;;;;;;;;6306455;22;20508;-88
2023/11/17 13:32:00;;;;;;;1.98;1.60;;;;;;;;;;6306891;22;20182;-88
2023/11/17 13:34:30;;;;;;;1.30;1.10;;;;;;;;;;6306757;22;20171;-88
2023/11/17 13:36:58;;;;;;;4.95;2.42;;;;;;;;;;6306738;22;20179;-88
2023/11/17 13:39:32;;;;;;;6.10;3.15;;;;;;;;;;6306434;22;20199;-89
2023/11/17 13:42:01;;;;;;;5.13;2.17;;;;;;;;;;6306572;22;20168;-88
2023/11/17 13:44:30;;;;;;;1.77;1.30;;;;;;;;;;6306577;22;20242;-87
2023/11/17 13:46:59;;;;;;;2.33;1.50;;;;;;;;;;6306909;22;20221;-88
2023/11/17 13:49:28;;;;;;;3.65;1.98;;;;;;;;;;6306691;22;20194;-88
2023/11/17 13:51:58;;;;;;;2.28;1.77;;;;;;;;;;6307038;22;20179;-88
2023/11/17 13:54:28;;;;;;;6.20;2.33;;;;;;;;;;6306560;22;20175;-88
2023/11/17 13:56:55;;;;;;;3.10;1.42;;;;;;;;;;6306796;22;20162;-88
2023/11/17 13:59:26;;;;;;;1.95;1.70;;;;;;;;;;6307442;22;20247;-88
2023/11/17 14:01:56;;;;;;;1.98;1.77;;;;;;;;;;6310935;22;20159;-88
2023/11/17 14:04:26;;;;;;;1.40;1.30;;;;;;;;;;6306514;22;20168;-88
2023/11/17 14:06:56;;;;;;;1.38;1.27;;;;;;;;;;6306587;22;20175;-88
2023/11/17 14:09:24;;;;;;;1.70;1.45;;;;;;;;;;6306292;22;20262;-88
2023/11/17 14:11:51;;;;;;;2.55;1.00;;;;;;;;;;6306814;22;20229;-88
2023/11/17 14:14:19;;;;;;;1.10;1.00;;;;;;;;;;6312212;22;20509;-89
2023/11/17 14:16:49;;;;;;;0.70;0.70;;;;;;;;;;6306510;22;20675;-87
2023/11/17 14:19:18;;;;;;;0.80;0.80;;;;;;;;;;6306287;22;20270;-88
2023/11/17 14:21:46;;;;;;;1.08;0.90;;;;;;;;;;6306717;22;20190;-88
2023/11/17 14:24:17;;;;;;;1.13;0.88;;;;;;;;;;6306925;22;20199;-87
2023/11/17 14:26:44;;;;;;;1.55;1.40;;;;;;;;;;6307427;22;20162;-87
2023/11/17 14:29:13;;;;;;;0.60;0.60;;;;;;;;;;6307196;22;20219;-87
2023/11/17 14:31:42;;;;;;;1.20;0.70;;;;;;;;;;6307316;22;20499;-87
2023/11/17 14:34:12;;;;;;;0.70;0.70;;;;;;;;;;6306731;22;20172;-87
2023/11/17 14:36:40;;;;;;;1.00;0.90;;;;;;;;;;6306794;22;20168;-87
2023/11/17 14:39:09;;;;;;;1.77;0.82;;;;;;;;;;6307104;22;20187;-87
2023/11/17 14:41:38;;;;;;;0.70;0.70;;;;;;;;;;6308499;22;20188;-87
2023/11/17 14:44:07;;;;;;;0.63;0.63;;;;;;;;;;6308460;22;20179;-87
2023/11/17 14:46:35;;;;;;;0.90;0.90;;;;;;;;;;6308968;22;20171;-88
2023/11/17 14:49:04;;;;;;;0.98;0.80;;;;;;;;;;6308667;22;20573;-88
2023/11/17 14:51:32;;;;;;;0.98;0.98;;;;;;;;;;6308575;22;20171;-87
2023/11/17 14:54:00;;;;;;;1.15;1.08;;;;;;;;;;6308287;22;20880;-88
2023/11/17 14:56:28;;;;;;;1.63;1.52;;;;;;;;;;6308800;22;20207;-88